Time;durP1;ratioP1;P1;durP2;ratioP2;P2;SDS_P1;SDS_P2;PMS_P1;PMS_P2;Temp;Humidity;BMP_temperature;BMP_pressure;BME280_temperature;BME280_humidity;BME280_pressure;Samples;Min_cycle;Max_cycle;Signal;HPM_P1;HPM_P2
2023/05/16 00:01:07;;;;;;;6.85;4.50;;;10.50;99.90;;;;;;4991219;28;20034;-58
2023/05/16 00:03:33;;;;;;;7.78;4.20;;;10.60;99.90;;;;;;5000965;28;20540;-59
2023/05/16 00:06:01;;;;;;;8.55;4.03;;;10.50;99.90;;;;;;5007364;28;20559;-59
2023/05/16 00:08:27;;;;;;;6.07;3.67;;;10.50;99.90;;;;;;4992739;28;20046;-59
2023/05/16 00:10:52;;;;;;;4.38;3.25;;;10.30;99.90;;;;;;4995677;28;20461;-59
2023/05/16 00:13:23;;;;;;;10.35;3.30;;;10.30;99.90;;;;;;4993294;28;20034;-59
2023/05/16 00:15:50;;;;;;;8.43;3.17;;;10.30;99.90;;;;;;5002406;28;20057;-59
2023/05/16 00:18:18;;;;;;;10.20;3.20;;;10.10;99.90;;;;;;4994294;28;20041;-59
2023/05/16 00:20:44;;;;;;;9.18;3.65;;;10.00;99.90;;;;;;5002580;28;20397;-59
2023/05/16 00:23:09;;;;;;;6.82;3.13;;;10.20;99.90;;;;;;5004030;28;20049;-59
2023/05/16 00:25:36;;;;;;;10.90;3.75;;;10.30;99.90;;;;;;5001450;28;21439;-59
2023/05/16 00:28:01;;;;;;;10.38;3.45;;;10.20;99.90;;;;;;5001606;28;20045;-56
2023/05/16 00:30:27;;;;;;;6.65;3.08;;;10.10;99.90;;;;;;4992412;28;20048;-59
2023/05/16 00:32:54;;;;;;;12.10;3.40;;;10.00;99.90;;;;;;5003751;28;20065;-60
2023/05/16 00:35:20;;;;;;;7.50;3.30;;;10.20;99.90;;;;;;5001823;28;20076;-59
2023/05/16 00:37:46;;;;;;;10.95;3.45;;;10.10;99.90;;;;;;4997234;28;20034;-59
2023/05/16 00:40:12;;;;;;;10.18;3.33;;;9.90;99.90;;;;;;5000971;28;20034;-59
2023/05/16 00:42:38;;;;;;;11.20;3.38;;;10.30;99.90;;;;;;5000104;28;20038;-59
2023/05/16 00:45:05;;;;;;;16.20;3.95;;;10.00;99.90;;;;;;5002468;28;20046;-59
2023/05/16 00:47:31;;;;;;;9.25;3.67;;;10.00;99.90;;;;;;4997173;28;20446;-60
2023/05/16 00:49:57;;;;;;;9.80;4.07;;;10.00;99.90;;;;;;5000813;28;20029;-60
2023/05/16 00:52:23;;;;;;;7.28;4.10;;;10.10;99.90;;;;;;4996752;28;20044;-60
2023/05/16 00:54:50;;;;;;;13.60;5.18;;;9.90;99.90;;;;;;4999763;28;20552;-60
2023/05/16 00:57:16;;;;;;;18.38;4.68;;;10.00;99.90;;;;;;4998942;28;20045;-61
2023/05/16 00:59:45;;;;;;;9.25;4.30;;;9.90;99.90;;;;;;5001452;28;20048;-62
2023/05/16 01:02:11;;;;;;;14.32;4.07;;;10.00;99.90;;;;;;5000302;28;20053;-62
2023/05/16 01:04:38;;;;;;;9.43;3.80;;;10.10;99.90;;;;;;5007001;28;20041;-62
2023/05/16 01:07:04;;;;;;;15.10;4.53;;;10.10;99.90;;;;;;5004935;28;20045;-60
2023/05/16 01:09:30;;;;;;;13.25;3.35;;;10.10;99.90;;;;;;4999560;28;20042;-61
2023/05/16 01:12:33;;;;;;;15.43;4.22;;;10.40;99.90;;;;;;5001919;28;20143;-61
2023/05/16 01:15:12;;;;;;;13.98;3.67;;;10.00;99.90;;;;;;4998019;28;20030;-61
2023/05/16 01:17:47;;;;;;;14.70;4.18;;;9.90;99.90;;;;;;5006523;28;20095;-61
2023/05/16 01:20:32;;;;;;;16.55;4.28;;;9.80;99.90;;;;;;4997309;28;20084;-61
2023/05/16 01:23:07;;;;;;;11.65;3.50;;;9.90;99.90;;;;;;5002003;28;21151;-62
2023/05/16 01:25:57;;;;;;;16.63;3.80;;;10.00;99.90;;;;;;5006433;28;20509;-62
2023/05/16 01:28:24;;;;;;;16.60;3.55;;;9.80;99.90;;;;;;5002490;28;20537;-62
2023/05/16 01:30:50;;;;;;;10.88;3.45;;;9.70;99.90;;;;;;5004541;28;20038;-62
2023/05/16 01:33:16;;;;;;;13.63;3.60;;;9.80;99.90;;;;;;5003001;28;20026;-62
2023/05/16 01:36:12;;;;;;;15.65;3.88;;;9.70;99.90;;;;;;5003810;28;20064;-61
2023/05/16 01:39:33;;;;;;;15.85;3.53;;;9.80;99.90;;;;;;4928746;28;20047;-62
2023/05/16 01:42:06;;;;;;;14.45;3.40;;;9.70;99.90;;;;;;4945675;28;20059;-63
2023/05/16 01:44:38;;;;;;;19.50;4.03;;;9.60;99.90;;;;;;4986258;28;20140;-63
2023/05/16 01:47:08;;;;;;;13.65;3.83;;;9.60;99.90;;;;;;5003067;28;20381;-62
2023/05/16 01:49:39;;;;;;;14.23;3.83;;;9.50;99.90;;;;;;5000236;28;20037;-63
2023/05/16 01:52:13;;;;;;;18.75;4.15;;;9.50;99.90;;;;;;5005982;28;20036;-62
2023/05/16 01:54:44;;;;;;;20.63;4.20;;;10.00;99.90;;;;;;4998401;28;20048;-63
2023/05/16 01:57:10;;;;;;;17.95;3.78;;;9.70;99.90;;;;;;5001578;28;20141;-63
2023/05/16 01:59:37;;;;;;;13.75;3.83;;;9.30;99.90;;;;;;5004944;28;20041;-63
2023/05/16 02:02:03;;;;;;;17.42;3.50;;;9.60;99.90;;;;;;4999625;28;20093;-63
2023/05/16 02:04:29;;;;;;;22.70;4.03;;;9.50;99.90;;;;;;5003648;28;21351;-63
2023/05/16 02:06:55;;;;;;;18.60;3.55;;;9.30;99.90;;;;;;4999162;28;20042;-63
2023/05/16 02:09:21;;;;;;;20.40;4.20;;;9.40;99.90;;;;;;4996646;28;20045;-63
2023/05/16 02:11:47;;;;;;;16.38;4.47;;;9.70;99.90;;;;;;4999486;28;20079;-64
2023/05/16 02:14:12;;;;;;;20.20;4.05;;;9.50;99.90;;;;;;5006302;28;20045;-64
2023/05/16 02:16:38;;;;;;;14.13;3.83;;;9.40;99.90;;;;;;5001618;28;20085;-64
2023/05/16 02:19:04;;;;;;;19.15;4.25;;;9.50;99.90;;;;;;5001632;28;20459;-63
2023/05/16 02:21:30;;;;;;;23.65;5.10;;;9.70;99.90;;;;;;5008690;28;20046;-64
2023/05/16 02:23:55;;;;;;;21.52;5.50;;;9.60;99.90;;;;;;5003557;28;20042;-64
2023/05/16 02:26:21;;;;;;;20.52;4.72;;;9.60;99.90;;;;;;5004034;28;20046;-64
2023/05/16 02:28:48;;;;;;;16.00;4.43;;;9.50;99.90;;;;;;5004556;28;20042;-64
2023/05/16 02:31:28;;;;;;;16.75;4.60;;;9.50;99.90;;;;;;4994008;28;20101;-64
2023/05/16 02:33:54;;;;;;;21.05;4.63;;;9.50;99.90;;;;;;5005673;28;20129;-64
2023/05/16 02:36:20;;;;;;;20.63;4.72;;;9.60;99.90;;;;;;4999284;28;20152;-64
2023/05/16 02:38:45;;;;;;;21.00;4.80;;;9.60;99.90;;;;;;5005466;28;20044;-64
2023/05/16 02:41:11;;;;;;;17.38;5.15;;;9.60;99.90;;;;;;4997378;28;20057;-64
2023/05/16 02:43:36;;;;;;;26.17;5.78;;;9.50;99.90;;;;;;5006160;28;20053;-65
2023/05/16 02:46:20;;;;;;;23.33;4.28;;;9.40;99.90;;;;;;5004693;28;20044;-64
2023/05/16 02:48:45;;;;;;;22.38;4.50;;;9.30;99.90;;;;;;5001655;28;20339;-65
2023/05/16 02:51:11;;;;;;;20.73;4.25;;;9.40;99.90;;;;;;5002102;28;20049;-64
2023/05/16 02:53:36;;;;;;;18.88;3.40;;;9.30;99.90;;;;;;5004435;28;20033;-64
2023/05/16 02:56:05;;;;;;;21.10;5.07;;;9.20;99.90;;;;;;4998018;28;20038;-64
2023/05/16 02:58:31;;;;;;;16.83;3.78;;;9.20;99.90;;;;;;5002638;28;20524;-64
2023/05/16 03:00:57;;;;;;;23.10;4.32;;;9.10;99.90;;;;;;5004207;28;20050;-64
2023/05/16 03:03:22;;;;;;;16.80;4.15;;;9.10;99.90;;;;;;5009711;28;20500;-64
2023/05/16 03:05:48;;;;;;;22.30;5.00;;;9.00;99.90;;;;;;5002721;28;20744;-63
2023/05/16 03:08:14;;;;;;;19.45;3.70;;;8.80;99.90;;;;;;5002813;28;20583;-63
2023/05/16 03:10:40;;;;;;;17.17;3.53;;;8.80;99.90;;;;;;5003766;28;20033;-62
2023/05/16 03:13:05;;;;;;;19.95;3.95;;;8.80;99.90;;;;;;5005410;28;20026;-61
2023/05/16 03:15:31;;;;;;;19.77;3.88;;;8.70;99.90;;;;;;5005787;28;20042;-63
2023/05/16 03:17:56;;;;;;;19.98;3.88;;;8.70;99.90;;;;;;4998937;28;20054;-62
2023/05/16 03:20:22;;;;;;;20.30;4.30;;;8.80;99.90;;;;;;5001030;28;20318;-62
2023/05/16 03:22:47;;;;;;;15.85;3.75;;;8.80;99.90;;;;;;5001767;28;20034;-63
2023/05/16 03:25:13;;;;;;;16.27;3.65;;;8.90;99.90;;;;;;5005893;28;20034;-62
2023/05/16 03:27:39;;;;;;;18.35;4.05;;;8.80;99.90;;;;;;5011074;28;20128;-63
2023/05/16 03:30:05;;;;;;;20.40;4.07;;;8.60;99.90;;;;;;5003142;28;20037;-62
2023/05/16 03:32:31;;;;;;;18.80;3.92;;;8.50;99.90;;;;;;5000072;28;20042;-62
2023/05/16 03:34:57;;;;;;;18.90;4.35;;;8.50;99.90;;;;;;5002123;28;20046;-62
2023/05/16 03:37:23;;;;;;;24.58;3.80;;;8.50;99.90;;;;;;5006273;28;20092;-62
2023/05/16 03:39:48;;;;;;;19.13;3.97;;;8.60;99.90;;;;;;5005167;28;20658;-62
2023/05/16 03:42:14;;;;;;;19.08;3.72;;;8.60;99.90;;;;;;5005232;28;20134;-62
2023/05/16 03:44:40;;;;;;;14.43;3.80;;;8.40;99.90;;;;;;5003521;28;20124;-63
2023/05/16 03:47:05;;;;;;;22.55;4.43;;;8.50;99.90;;;;;;5002771;28;20029;-61
2023/05/16 03:49:31;;;;;;;15.07;3.83;;;;;;;;;;5006869;28;20044;-62
2023/05/16 03:51:57;;;;;;;21.13;3.78;;;8.20;99.90;;;;;;5005832;28;20141;-63
2023/05/16 03:54:22;;;;;;;20.77;3.95;;;8.00;99.90;;;;;;5001146;28;20040;-62
2023/05/16 03:56:48;;;;;;;23.05;4.00;;;8.00;99.90;;;;;;5002287;28;20033;-63
2023/05/16 03:59:14;;;;;;;17.33;4.25;;;8.00;99.90;;;;;;5006623;28;20493;-62
2023/05/16 04:01:39;;;;;;;21.48;3.70;;;8.00;99.90;;;;;;5001973;28;20044;-62
2023/05/16 04:04:05;;;;;;;17.55;3.33;;;7.60;99.90;;;;;;4995594;28;20045;-62
2023/05/16 04:06:31;;;;;;;17.38;3.58;;;8.00;99.90;;;;;;5006536;28;21284;-62
2023/05/16 04:08:57;;;;;;;22.55;4.22;;;8.10;99.90;;;;;;5012650;28;20077;-63
2023/05/16 04:11:22;;;;;;;24.05;3.97;;;8.40;99.90;;;;;;5003188;28;20490;-62
2023/05/16 04:13:48;;;;;;;12.77;2.95;;;9.10;99.90;;;;;;5006566;28;20461;-63
2023/05/16 04:16:13;;;;;;;15.75;3.60;;;8.10;99.90;;;;;;5002730;28;20045;-62
2023/05/16 04:18:40;;;;;;;21.92;3.38;;;7.90;99.90;;;;;;5003458;28;20048;-64
2023/05/16 04:21:06;;;;;;;24.20;4.05;;;7.90;99.90;;;;;;5002811;28;20563;-62
2023/05/16 04:23:32;;;;;;;16.25;3.30;;;8.10;99.90;;;;;;5007080;28;20379;-62
2023/05/16 04:25:58;;;;;;;17.15;3.08;;;7.90;99.90;;;;;;5005700;28;20095;-63
2023/05/16 04:28:23;;;;;;;18.10;3.45;;;7.90;99.90;;;;;;5005055;28;20045;-62
2023/05/16 04:30:50;;;;;;;18.95;4.03;;;7.80;99.90;;;;;;5000195;28;20555;-63
2023/05/16 04:33:15;;;;;;;20.02;3.50;;;7.90;99.90;;;;;;4981808;28;20444;-63
2023/05/16 04:35:41;;;;;;;14.55;3.15;;;8.00;99.90;;;;;;4999493;28;20038;-63
2023/05/16 04:38:07;;;;;;;21.05;3.47;;;8.20;99.90;;;;;;5001716;28;20104;-62
2023/05/16 04:40:33;;;;;;;20.35;3.67;;;8.10;99.90;;;;;;4999130;28;20485;-62
2023/05/16 04:42:58;;;;;;;18.00;3.45;;;8.00;99.90;;;;;;5002430;28;20058;-62
2023/05/16 04:45:24;;;;;;;24.73;3.47;;;8.20;99.90;;;;;;5000292;28;20026;-62
2023/05/16 04:47:50;;;;;;;16.20;3.03;;;8.10;99.90;;;;;;5004082;28;20473;-63
2023/05/16 04:50:16;;;;;;;16.73;3.17;;;8.40;99.90;;;;;;4983592;28;20118;-62
2023/05/16 04:52:42;;;;;;;13.10;2.75;;;8.50;99.90;;;;;;5005921;28;20034;-63
2023/05/16 04:55:09;;;;;;;17.75;3.10;;;;;;;;;;5009878;28;20132;-62
2023/05/16 04:57:35;;;;;;;10.68;2.70;;;8.40;99.90;;;;;;5005193;28;20485;-62
2023/05/16 05:00:01;;;;;;;17.63;3.47;;;8.60;99.90;;;;;;5004063;28;20100;-63
2023/05/16 05:02:26;;;;;;;18.63;3.03;;;8.60;99.90;;;;;;4997253;28;20399;-63
2023/05/16 05:04:52;;;;;;;10.75;2.78;;;8.60;99.90;;;;;;5010747;28;20041;-63
2023/05/16 05:07:17;;;;;;;23.13;3.55;;;8.70;99.90;;;;;;5006178;28;20373;-62
2023/05/16 05:09:43;;;;;;;14.95;3.17;;;8.70;99.90;;;;;;5004498;28;20041;-62
2023/05/16 05:12:10;;;;;;;17.00;3.15;;;8.70;99.90;;;;;;4998069;28;20034;-62
2023/05/16 05:14:35;;;;;;;18.95;3.10;;;8.60;99.90;;;;;;5004876;28;20038;-63
2023/05/16 05:17:01;;;;;;;17.35;3.15;;;8.60;99.90;;;;;;5001695;28;20037;-63
2023/05/16 05:19:26;;;;;;;14.75;2.65;;;8.80;99.90;;;;;;5001352;28;20493;-63
2023/05/16 05:21:52;;;;;;;19.13;3.00;;;9.00;99.90;;;;;;4999677;28;20715;-65
2023/05/16 05:24:18;;;;;;;18.90;3.55;;;8.80;99.90;;;;;;5001266;28;20456;-63
2023/05/16 05:26:43;;;;;;;13.25;2.92;;;8.90;99.90;;;;;;5004612;28;20679;-63
2023/05/16 05:29:09;;;;;;;19.23;3.22;;;9.10;99.90;;;;;;5004105;28;20034;-63
2023/05/16 05:31:34;;;;;;;14.20;2.67;;;9.10;99.90;;;;;;4978618;28;20042;-63
2023/05/16 05:34:00;;;;;;;19.35;2.80;;;9.10;99.90;;;;;;5004701;28;20037;-64
2023/05/16 05:36:26;;;;;;;16.08;3.13;;;9.10;99.90;;;;;;4992516;28;20037;-63
2023/05/16 05:38:51;;;;;;;20.85;3.42;;;9.00;99.90;;;;;;4989837;28;20061;-64
2023/05/16 05:41:17;;;;;;;17.10;3.42;;;9.10;99.90;;;;;;5010119;28;20425;-65
2023/05/16 05:43:42;;;;;;;21.90;3.35;;;9.30;99.90;;;;;;5000007;28;20467;-65
2023/05/16 05:46:08;;;;;;;18.52;3.40;;;9.50;99.90;;;;;;5001050;28;22213;-65
2023/05/16 05:48:34;;;;;;;23.48;3.42;;;9.70;99.90;;;;;;5008581;28;20335;-65
2023/05/16 05:50:59;;;;;;;15.27;2.58;;;9.50;99.90;;;;;;5009290;28;20042;-65
2023/05/16 05:53:25;;;;;;;15.50;2.47;;;9.50;99.90;;;;;;5005651;28;20042;-65
2023/05/16 05:55:51;;;;;;;19.60;3.08;;;9.60;99.90;;;;;;5010886;28;20477;-66
2023/05/16 05:58:17;;;;;;;14.82;3.20;;;9.40;99.90;;;;;;5009773;28;20037;-65
2023/05/16 06:00:42;;;;;;;14.48;2.30;;;9.50;99.90;;;;;;5001023;28;20061;-65
2023/05/16 06:03:08;;;;;;;13.50;3.00;;;9.60;99.90;;;;;;5005690;28;20037;-65
2023/05/16 06:05:34;;;;;;;13.75;2.65;;;9.70;99.90;;;;;;4999887;28;20034;-66
2023/05/16 06:07:59;;;;;;;19.85;3.20;;;9.50;99.90;;;;;;4995161;28;20064;-66
2023/05/16 06:10:25;;;;;;;15.82;2.92;;;9.60;99.90;;;;;;5008442;28;20033;-65
2023/05/16 06:12:50;;;;;;;18.92;3.42;;;9.60;99.90;;;;;;5009596;28;20038;-65
2023/05/16 06:15:16;;;;;;;17.08;3.05;;;9.70;99.90;;;;;;5010880;28;20045;-66
2023/05/16 06:17:42;;;;;;;16.95;2.95;;;10.00;99.90;;;;;;5001472;28;20486;-66
2023/05/16 06:20:07;;;;;;;17.20;2.92;;;9.70;99.90;;;;;;5005344;28;20037;-64
2023/05/16 06:22:33;;;;;;;14.93;2.67;;;9.80;99.90;;;;;;5005588;28;20026;-66
2023/05/16 06:24:59;;;;;;;10.35;2.60;;;10.00;99.90;;;;;;5007777;28;20037;-66
2023/05/16 06:27:24;;;;;;;13.18;2.80;;;10.20;99.90;;;;;;5009984;28;20036;-67
2023/05/16 06:29:50;;;;;;;12.35;2.30;;;10.10;99.90;;;;;;4999973;28;20046;-67
2023/05/16 06:32:15;;;;;;;16.77;3.15;;;10.00;99.90;;;;;;4999620;28;20042;-66
2023/05/16 06:34:41;;;;;;;15.05;2.95;;;10.20;99.90;;;;;;4993081;28;20034;-67
2023/05/16 06:37:07;;;;;;;9.55;2.33;;;10.20;99.90;;;;;;5000905;28;20045;-66
2023/05/16 06:39:32;;;;;;;15.27;2.95;;;10.20;99.90;;;;;;4988579;28;20033;-67
2023/05/16 06:41:58;;;;;;;15.25;2.92;;;10.10;99.90;;;;;;5006002;28;20132;-67
2023/05/16 06:44:23;;;;;;;22.48;3.40;;;10.20;99.90;;;;;;5003885;28;20770;-67
2023/05/16 06:46:49;;;;;;;15.52;2.78;;;10.20;99.90;;;;;;4997046;28;20596;-67
2023/05/16 06:49:15;;;;;;;15.85;2.83;;;10.20;99.90;;;;;;5005170;28;20041;-67
2023/05/16 06:51:40;;;;;;;20.40;2.90;;;10.40;99.90;;;;;;5004204;28;20060;-67
2023/05/16 06:54:06;;;;;;;14.07;3.42;;;10.60;99.90;;;;;;4999099;28;20037;-67
2023/05/16 06:56:31;;;;;;;17.08;3.42;;;10.70;71.00;;;;;;5005869;28;20129;-67
2023/05/16 06:58:57;;;;;;;15.05;2.65;;;10.80;96.30;;;;;;4994700;28;20077;-67
2023/05/16 07:01:23;;;;;;;10.40;2.38;;;10.90;64.20;;;;;;5007658;28;20042;-67
2023/05/16 07:03:48;;;;;;;22.25;2.50;;;10.80;35.00;;;;;;4997323;28;20045;-68
2023/05/16 07:06:14;;;;;;;16.60;2.60;;;10.90;1.00;;;;;;4985129;28;20456;-67
2023/05/16 07:08:39;;;;;;;15.65;2.55;;;10.70;1.00;;;;;;4993653;28;20087;-68
2023/05/16 07:11:05;;;;;;;13.73;2.40;;;10.30;9.50;;;;;;5004244;28;20037;-67
2023/05/16 07:13:31;;;;;;;17.45;2.78;;;10.10;25.60;;;;;;5008199;28;20054;-68
2023/05/16 07:15:56;;;;;;;12.10;2.25;;;10.30;12.10;;;;;;5005816;28;20449;-68
2023/05/16 07:18:22;;;;;;;17.95;2.00;;;10.20;1.00;;;;;;5003265;28;20053;-68
2023/05/16 07:20:47;;;;;;;12.57;2.70;;;10.20;1.00;;;;;;4999188;28;20121;-68
2023/05/16 07:23:13;;;;;;;11.82;2.05;;;10.30;1.00;;;;;;4999306;28;20046;-67
2023/05/16 07:25:38;;;;;;;10.50;2.15;;;10.70;1.00;;;;;;5005720;28;20087;-67
2023/05/16 07:28:04;;;;;;;11.60;2.10;;;10.80;1.00;;;;;;5001573;28;20093;-67
2023/05/16 07:30:30;;;;;;;14.38;2.33;;;10.90;1.00;;;;;;4998599;28;20034;-68
2023/05/16 07:32:55;;;;;;;15.82;2.28;;;11.30;1.00;;;;;;5000511;28;20417;-67
2023/05/16 07:35:21;;;;;;;12.30;2.13;;;11.40;1.00;;;;;;5004327;28;20044;-68
2023/05/16 07:37:47;;;;;;;13.18;2.00;;;11.50;1.00;;;;;;5002104;28;20080;-68
2023/05/16 07:40:13;;;;;;;10.90;2.20;;;11.60;1.00;;;;;;5001854;28;20040;-67
2023/05/16 07:42:39;;;;;;;9.00;2.17;;;11.50;99.90;;;;;;5003685;28;20071;-67
2023/05/16 07:45:06;;;;;;;13.70;1.90;;;11.60;1.00;;;;;;5001973;28;20139;-67
2023/05/16 07:47:32;;;;;;;11.00;1.80;;;11.70;1.00;;;;;;4996165;28;20034;-68
2023/05/16 07:49:57;;;;;;;11.23;1.95;;;11.20;1.00;;;;;;5005821;28;20057;-68
2023/05/16 07:52:23;;;;;;;12.88;5.45;;;11.30;1.00;;;;;;5003075;28;20037;-65
2023/05/16 07:54:48;;;;;;;11.20;2.03;;;11.20;1.00;;;;;;5004840;28;20056;-68
2023/05/16 07:57:14;;;;;;;9.65;1.77;;;11.00;1.00;;;;;;5002474;28;20034;-67
2023/05/16 07:59:40;;;;;;;5.78;1.60;;;11.10;99.90;;;;;;5008100;28;20185;-67
2023/05/16 08:02:06;;;;;;;13.70;1.95;;;11.50;99.90;;;;;;5003020;28;20455;-67
2023/05/16 08:04:32;;;;;;;9.73;2.20;;;11.80;99.90;;;;;;5006951;28;20037;-68
2023/05/16 08:06:57;;;;;;;7.70;1.30;;;12.20;99.90;;;;;;5001388;28;20374;-68
2023/05/16 08:09:23;;;;;;;9.38;2.13;;;12.30;99.90;;;;;;5001057;28;20041;-68
2023/05/16 08:11:48;;;;;;;7.70;1.80;;;12.50;99.90;;;;;;5004180;28;20417;-65
2023/05/16 08:14:14;;;;;;;10.43;1.85;;;12.70;99.90;;;;;;5004420;28;20042;-65
2023/05/16 08:16:40;;;;;;;12.70;1.85;;;12.50;48.60;;;;;;5008326;28;20556;-65
2023/05/16 08:19:06;;;;;;;12.85;1.38;;;12.80;99.90;;;;;;4996043;28;20053;-66
2023/05/16 08:21:31;;;;;;;6.18;1.63;;;12.70;99.90;;;;;;4999999;28;20038;-66
2023/05/16 08:23:57;;;;;;;7.70;1.67;;;12.30;99.90;;;;;;5003274;28;20038;-66
2023/05/16 08:26:23;;;;;;;5.25;1.48;;;12.20;99.90;;;;;;5000291;28;20115;-65
2023/05/16 08:28:49;;;;;;;9.73;1.90;;;12.60;99.90;;;;;;4994941;28;20037;-66
2023/05/16 08:31:22;;;;;;;7.68;1.73;;;12.70;99.90;;;;;;5050896;27;20411;-66
2023/05/16 08:33:48;;;;;;;7.93;1.63;;;12.80;1.00;;;;;;5054657;28;20182;-66
2023/05/16 08:36:14;;;;;;;9.73;1.85;;;12.60;1.00;;;;;;5058616;28;20037;-66
2023/05/16 08:38:40;;;;;;;7.03;1.80;;;12.30;1.00;;;;;;5039983;28;20297;-66
2023/05/16 08:41:06;;;;;;;7.72;1.50;;;12.20;1.00;;;;;;5038266;28;20632;-66
2023/05/16 08:43:33;;;;;;;9.63;1.77;;;12.10;1.00;;;;;;5038670;28;20275;-66
2023/05/16 08:45:59;;;;;;;13.43;2.03;;;12.10;86.60;;;;;;5043007;28;20043;-67
2023/05/16 08:48:27;;;;;;;5.60;1.58;;;12.10;1.00;;;;;;5035895;28;20440;-66
2023/05/16 08:50:52;;;;;;;10.20;1.65;;;12.30;1.00;;;;;;5044538;28;20047;-67
2023/05/16 08:53:21;;;;;;;10.63;1.50;;;12.40;99.90;;;;;;5034571;28;20071;-67
2023/05/16 08:55:48;;;;;;;6.55;1.70;;;12.40;1.00;;;;;;5039846;28;20037;-66
2023/05/16 08:58:14;;;;;;;11.25;1.70;;;12.60;99.90;;;;;;5038193;28;20045;-66
2023/05/16 09:00:40;;;;;;;6.47;1.40;;;12.70;1.00;;;;;;5038105;28;20033;-67
2023/05/16 09:03:06;;;;;;;9.18;1.40;;;12.80;1.00;;;;;;5042055;28;20037;-66
2023/05/16 09:05:32;;;;;;;10.45;1.40;;;13.00;1.00;;;;;;5039161;28;20044;-67
2023/05/16 09:07:58;;;;;;;8.63;1.92;;;13.10;99.90;;;;;;5043343;28;20068;-67
2023/05/16 09:10:23;;;;;;;7.53;1.42;;;13.10;99.90;;;;;;5038696;28;20073;-67
2023/05/16 09:12:49;;;;;;;7.65;1.45;;;13.20;99.90;;;;;;5037167;28;20499;-67
2023/05/16 09:15:17;;;;;;;9.15;1.65;;;12.90;1.00;;;;;;5042952;28;20048;-66
2023/05/16 09:17:45;;;;;;;9.32;1.90;;;13.00;1.00;;;;;;5035669;28;20034;-67
2023/05/16 09:20:15;;;;;;;14.43;1.75;;;12.70;1.00;;;;;;5036952;28;20565;-66
2023/05/16 09:22:53;;;;;;;7.65;1.83;;;12.60;53.00;;;;;;5034912;28;20084;-67
2023/05/16 09:25:20;;;;;;;11.07;2.00;;;12.40;99.90;;;;;;5034265;28;20041;-67
2023/05/16 09:27:47;;;;;;;7.90;1.77;;;12.20;99.90;;;;;;5044874;28;20524;-67
2023/05/16 09:30:15;;;;;;;11.32;2.38;;;12.30;99.90;;;;;;5036226;28;20528;-68
2023/05/16 09:32:44;;;;;;;11.82;1.90;;;12.40;99.90;;;;;;5035111;28;20098;-67
2023/05/16 09:35:15;;;;;;;8.57;2.22;;;12.40;99.90;;;;;;5050561;28;20111;-66
2023/05/16 09:37:47;;;;;;;9.75;1.80;;;12.70;99.90;;;;;;5044206;28;20139;-67
2023/05/16 09:40:13;;;;;;;11.65;1.90;;;12.70;1.00;;;;;;5047126;28;20045;-67
2023/05/16 09:42:39;;;;;;;6.78;1.73;;;13.10;1.00;;;;;;5033433;28;20039;-67
2023/05/16 09:45:05;;;;;;;11.82;1.92;;;13.20;99.90;;;;;;5033596;28;20055;-67
2023/05/16 09:47:31;;;;;;;8.75;1.80;;;13.40;99.90;;;;;;5029675;28;20041;-67
2023/05/16 09:49:57;;;;;;;7.78;2.03;;;13.70;99.90;;;;;;5021777;28;20382;-67
2023/05/16 09:52:26;;;;;;;8.23;1.83;;;14.10;1.00;;;;;;5022980;28;20037;-67
2023/05/16 09:54:53;;;;;;;7.10;1.65;;;14.00;29.50;;;;;;5022470;28;20377;-67
2023/05/16 09:57:25;;;;;;;8.02;1.75;;;13.80;1.00;;;;;;5028510;28;20412;-67
2023/05/16 09:59:51;;;;;;;8.27;1.75;;;13.40;99.90;;;;;;5028644;28;20033;-67
2023/05/16 10:02:17;;;;;;;6.45;1.50;;;13.70;99.90;;;;;;5025004;28;20099;-67
2023/05/16 10:04:45;;;;;;;6.82;1.92;;;13.80;99.90;;;;;;5024308;28;20037;-67
2023/05/16 10:07:12;;;;;;;9.52;1.90;;;14.10;63.10;;;;;;5027124;28;20083;-67
2023/05/16 10:09:39;;;;;;;7.40;1.60;;;14.10;1.00;;;;;;5022196;28;20080;-67
2023/05/16 10:12:07;;;;;;;6.68;1.50;;;14.30;99.90;;;;;;5025954;28;20048;-67
2023/05/16 10:14:35;;;;;;;9.23;2.00;;;14.40;1.00;;;;;;5029547;28;20382;-67
2023/05/16 10:17:03;;;;;;;10.30;2.08;;;13.70;99.90;;;;;;5017359;28;20116;-67
2023/05/16 10:19:31;;;;;;;7.57;1.60;;;13.60;1.00;;;;;;5014374;28;20049;-67
2023/05/16 10:21:59;;;;;;;10.13;2.08;;;13.10;2.10;;;;;;5030324;28;20489;-67
2023/05/16 10:24:47;;;;;;;8.13;1.65;;;12.90;99.90;;;;;;5030152;28;20040;-67
2023/05/16 10:27:14;;;;;;;8.23;1.85;;;12.70;99.90;;;;;;5035487;28;20082;-67
2023/05/16 10:29:41;;;;;;;4.85;1.20;;;12.40;99.90;;;;;;5029346;28;20044;-67
2023/05/16 10:32:07;;;;;;;5.78;1.10;;;12.30;1.00;;;;;;5019437;28;20037;-66
2023/05/16 10:34:34;;;;;;;5.47;1.30;;;11.90;1.00;;;;;;5018436;28;20502;-67
2023/05/16 10:37:00;;;;;;;7.05;1.10;;;11.60;1.00;;;;;;5024068;28;20070;-66
2023/05/16 10:39:26;;;;;;;7.25;1.52;;;11.60;1.00;;;;;;5037067;28;20033;-66
2023/05/16 10:41:52;;;;;;;3.63;0.95;;;11.60;1.00;;;;;;5028603;28;20133;-66
2023/05/16 10:44:18;;;;;;;4.90;1.00;;;12.00;1.00;;;;;;5032879;28;20120;-66
2023/05/16 10:46:46;;;;;;;5.18;1.20;;;12.10;1.00;;;;;;5030983;28;20037;-66
2023/05/16 10:49:23;;;;;;;5.93;1.33;;;12.20;1.00;;;;;;5032215;28;20044;-66
2023/05/16 10:52:10;;;;;;;6.60;1.60;;;12.50;1.00;;;;;;5033085;28;20059;-66
2023/05/16 10:54:41;;;;;;;6.05;1.27;;;12.80;1.00;;;;;;5025898;28;20409;-66
2023/05/16 10:57:16;;;;;;;3.92;1.00;;;13.00;99.90;;;;;;5030642;28;20036;-65
2023/05/16 10:59:46;;;;;;;3.10;0.90;;;12.80;1.00;;;;;;5026942;28;20488;-66
2023/05/16 11:02:22;;;;;;;5.13;1.00;;;13.20;99.90;;;;;;5028419;28;20029;-66
2023/05/16 11:04:50;;;;;;;3.67;0.88;;;13.30;99.90;;;;;;5023756;28;20508;-67
2023/05/16 11:07:18;;;;;;;3.47;0.70;;;13.40;99.90;;;;;;5025425;28;20934;-66
2023/05/16 11:09:44;;;;;;;3.78;0.73;;;13.60;1.00;;;;;;5020544;28;20122;-67
2023/05/16 11:12:10;;;;;;;2.78;0.90;;;13.50;22.30;;;;;;5040509;28;20033;-66
2023/05/16 11:14:38;;;;;;;3.63;0.80;;;13.80;99.90;;;;;;5033753;28;20041;-66
2023/05/16 11:17:14;;;;;;;3.00;0.70;;;13.70;99.90;;;;;;5037173;28;20481;-66
2023/05/16 11:19:39;;;;;;;4.18;0.80;;;14.00;99.90;;;;;;5025510;28;20584;-66
2023/05/16 11:22:24;;;;;;;4.20;0.70;;;14.30;99.90;;;;;;5026164;28;20052;-65
2023/05/16 11:24:58;;;;;;;5.20;0.90;;;14.30;1.00;;;;;;5022318;28;20614;-66
2023/05/16 11:27:32;;;;;;;3.28;0.88;;;14.50;99.90;;;;;;5021033;28;20044;-66
2023/05/16 11:30:04;;;;;;;3.97;0.93;;;14.40;99.90;;;;;;5024461;28;20048;-66
2023/05/16 11:32:33;;;;;;;4.68;0.90;;;13.50;1.00;;;;;;5022590;28;20033;-66
2023/05/16 11:35:00;;;;;;;4.20;0.77;;;13.50;99.90;;;;;;5022227;28;20044;-66
2023/05/16 11:37:27;;;;;;;4.50;1.13;;;13.60;99.90;;;;;;5018748;28;21036;-66
2023/05/16 11:39:53;;;;;;;7.20;1.23;;;13.20;99.90;;;;;;5022101;28;20507;-66
2023/05/16 11:42:18;;;;;;;4.40;1.10;;;13.10;1.00;;;;;;5021941;28;20091;-67
2023/05/16 11:44:44;;;;;;;4.70;1.25;;;13.10;71.00;;;;;;5030815;28;20429;-67
2023/05/16 11:47:11;;;;;;;3.15;1.02;;;12.90;99.90;;;;;;5021951;28;20038;-66
2023/05/16 11:49:36;;;;;;;4.47;1.30;;;13.00;99.90;;;;;;5029137;28;20040;-66
2023/05/16 11:52:03;;;;;;;2.60;0.77;;;12.70;99.90;;;;;;5025451;28;20678;-66
2023/05/16 11:54:30;;;;;;;4.55;1.27;;;12.60;97.40;;;;;;5025900;28;20044;-66
2023/05/16 11:56:56;;;;;;;6.80;1.00;;;12.90;99.90;;;;;;5020153;28;20064;-69
2023/05/16 11:59:22;;;;;;;3.80;0.77;;;13.20;99.90;;;;;;5019037;28;20333;-69
2023/05/16 12:01:49;;;;;;;1.80;0.40;;;13.40;38.00;;;;;;5020059;28;20064;-69
2023/05/16 12:04:16;;;;;;;3.75;1.02;;;13.60;32.50;;;;;;5019681;28;20938;-69
2023/05/16 12:06:47;;;;;;;3.15;0.88;;;13.80;29.20;;;;;;5021329;28;20029;-69
2023/05/16 12:09:14;;;;;;;4.45;0.98;;;14.10;99.90;;;;;;5018418;28;20840;-69
2023/05/16 12:11:43;;;;;;;4.90;0.90;;;14.20;99.90;;;;;;5022108;28;20163;-69
2023/05/16 12:14:12;;;;;;;3.22;0.80;;;14.10;1.00;;;;;;5017799;28;20666;-69
2023/05/16 12:16:41;;;;;;;2.63;0.60;;;14.20;99.90;;;;;;5022085;28;20041;-70
2023/05/16 12:19:07;;;;;;;3.40;0.90;;;14.30;1.00;;;;;;5020248;28;20501;-69
2023/05/16 12:21:34;;;;;;;4.07;0.68;;;14.40;1.00;;;;;;5024556;28;20040;-70
2023/05/16 12:24:00;;;;;;;5.68;0.80;;;14.40;99.90;;;;;;5021978;28;20488;-70
2023/05/16 12:26:29;;;;;;;1.42;0.45;;;14.50;1.00;;;;;;5022102;28;20432;-70
2023/05/16 12:29:04;;;;;;;3.83;0.80;;;14.50;99.90;;;;;;5023922;28;20523;-71
2023/05/16 12:31:40;;;;;;;6.60;0.75;;;14.50;1.00;;;;;;5025402;28;20582;-70
2023/05/16 12:34:16;;;;;;;2.88;0.70;;;14.60;99.90;;;;;;5027849;28;20029;-70
2023/05/16 12:36:42;;;;;;;6.20;0.70;;;14.70;1.00;;;;;;5023584;28;20492;-70
2023/05/16 12:39:11;;;;;;;4.68;1.10;;;14.70;1.00;;;;;;5029995;28;20064;-70
2023/05/16 12:41:41;;;;;;;3.45;0.80;;;14.70;1.00;;;;;;5026893;28;20437;-70
2023/05/16 12:44:22;;;;;;;1.83;0.60;;;14.80;86.10;;;;;;5012812;28;20321;-68
2023/05/16 12:46:51;;;;;;;3.35;0.93;;;14.70;53.60;;;;;;5030849;28;20529;-70
2023/05/16 12:49:23;;;;;;;5.05;1.10;;;14.60;1.00;;;;;;5025357;28;20129;-70